TimeMDT,TemperatureF,Dew PointF,Humidity,Sea Level PressureIn,VisibilityMPH,Wind Direction,Wind SpeedMPH,Gust SpeedMPH,PrecipitationIn,Events,Conditions,WindDirDegrees,DateUTC
12:52 AM,64.9,61.0,87,29.89,10.0,SSE,6.9,-,N/A,,Clear,150,2013-08-18 06:52:00
1:52 AM,64.0,60.1,87,29.87,10.0,SE,5.8,-,N/A,,Clear,130,2013-08-18 07:52:00
2:52 AM,63.0,60.1,90,29.87,10.0,Calm,Calm,-,N/A,,Clear,0,2013-08-18 08:52:00
3:52 AM,63.0,61.0,93,29.87,8.0,Calm,Calm,-,N/A,,Clear,0,2013-08-18 09:52:00
4:52 AM,62.1,60.1,93,29.88,8.0,ENE,3.5,-,N/A,,Clear,70,2013-08-18 10:52:00
5:52 AM,61.0,60.1,97,29.89,8.0,Calm,Calm,-,N/A,,Clear,0,2013-08-18 11:52:00
6:52 AM,61.0,59.0,93,29.91,4.0,Calm,Calm,-,N/A,,Clear,0,2013-08-18 12:52:00
7:52 AM,66.0,64.0,93,29.89,7.0,Calm,Calm,-,N/A,,Clear,0,2013-08-18 13:52:00
8:52 AM,73.9,62.1,66,29.89,10.0,Calm,Calm,-,N/A,,Clear,0,2013-08-18 14:52:00
9:52 AM,78.1,63.0,60,29.94,10.0,North,19.6,24.2,N/A,,Clear,350,2013-08-18 15:52:00
10:52 AM,78.1,63.0,60,29.93,10.0,North,21.9,33.4,N/A,,Clear,10,2013-08-18 16:52:00
11:52 AM,78.1,64.0,62,29.94,10.0,NE,15.0,-,N/A,,Clear,50,2013-08-18 17:52:00
12:43 PM,75.2,60.8,61,30.04,10.0,North,6.9,-,N/A,Thunderstorm,Thunderstorm,10,2013-08-18 18:43:00
12:52 PM,75.0,62.1,64,30.00,10.0,WNW,13.8,-,0.00,Rain,Light Rain,290,2013-08-18 18:52:00
1:25 PM,73.4,62.6,69,29.99,9.0,East,19.6,27.6,0.01,Rain,Light Rain,80,2013-08-18 19:25:00
1:52 PM,75.9,62.1,62,29.91,10.0,East,18.4,26.5,0.01,,Clear,100,2013-08-18 19:52:00
2:52 PM,82.9,64.0,53,29.88,10.0,ESE,19.6,25.3,N/A,,Clear,120,2013-08-18 20:52:00
3:28 PM,80.6,64.4,58,29.98,10.0,South,10.4,-,N/A,,Clear,170,2013-08-18 21:28:00
3:42 PM,80.6,64.4,58,29.99,10.0,SE,6.9,-,N/A,Thunderstorm,Clear,140,2013-08-18 21:42:00
3:52 PM,79.0,64.9,62,29.92,10.0,SSE,6.9,-,N/A,,Clear,150,2013-08-18 21:52:00
4:22 PM,77.0,64.4,65,30.01,10.0,South,8.1,-,0.00,Rain-Thunderstorm,Light Rain,180,2013-08-18 22:22:00
4:37 PM,75.2,64.4,69,29.97,10.0,SE,8.1,-,0.00,Rain,Light Rain,140,2013-08-18 22:37:00
4:52 PM,78.1,64.9,64,29.91,10.0,South,11.5,-,0.00,,Scattered Clouds,180,2013-08-18 22:52:00
5:52 PM,82.0,64.9,56,29.88,10.0,SSW,9.2,-,N/A,,Clear,210,2013-08-18 23:52:00
6:52 PM,78.1,64.0,62,29.89,10.0,SSW,4.6,-,N/A,,Clear,210,2013-08-19 00:52:00
7:52 PM,73.0,64.0,73,29.89,10.0,Calm,Calm,-,N/A,,Clear,0,2013-08-19 01:52:00
8:52 PM,72.0,64.9,78,29.91,10.0,South,4.6,-,N/A,,Clear,180,2013-08-19 02:52:00
9:52 PM,72.0,64.0,76,29.91,10.0,SW,4.6,-,N/A,,Clear,220,2013-08-19 03:52:00
10:52 PM,64.9,62.1,90,29.92,10.0,Calm,Calm,-,N/A,,Clear,0,2013-08-19 04:52:00
11:52 PM,69.1,59.0,70,29.91,10.0,NNW,9.2,-,N/A,,Clear,330,2013-08-19 05:52:00